createdAt,value
2023-05-11T00:01:09.342Z,98000.66
2023-05-11T00:06:11.173Z,98009.25
2023-05-11T00:11:13.100Z,98004.53
2023-05-11T00:16:15.078Z,98006.91
2023-05-11T00:21:16.989Z,98001.81
2023-05-11T00:26:18.807Z,98002.94
2023-05-11T00:31:21.157Z,98002.16
2023-05-11T00:36:23.189Z,97994.34
2023-05-11T00:41:25.472Z,97989.25
2023-05-11T00:46:28.328Z,97984.97
2023-05-11T00:51:32.168Z,97988.81
2023-05-11T00:56:34.162Z,97993.50
2023-05-11T01:01:38.761Z,97986.88
2023-05-11T01:07:12.339Z,97981.81
2023-05-11T01:12:26.801Z,97988.03
2023-05-11T01:17:50.536Z,97986.09
2023-05-11T01:23:07.056Z,97988.00
2023-05-11T01:28:29.561Z,97994.25
2023-05-11T01:33:35.232Z,97986.84
2023-05-11T01:38:42.085Z,97995.78
2023-05-11T01:43:49.520Z,97990.69
2023-05-11T01:48:54.735Z,97996.94
2023-05-11T01:53:58.944Z,97997.28
2023-05-11T01:59:01.556Z,97994.94
2023-05-11T02:04:05.910Z,97987.94
2023-05-11T02:09:09.555Z,97994.97
2023-05-11T02:14:12.233Z,97993.38
2023-05-11T02:19:14.579Z,97999.50
2023-05-11T02:24:18.272Z,98000.25
2023-05-11T02:29:20.302Z,98002.59
2023-05-11T02:34:28.879Z,98001.03
2023-05-11T02:39:35.558Z,98000.19
2023-05-11T02:44:39.427Z,97996.66
2023-05-11T02:49:44.303Z,97994.66
2023-05-11T02:54:49.641Z,98000.13
2023-05-11T02:59:52.131Z,97999.38
2023-05-11T03:04:54.097Z,98003.66
2023-05-11T03:09:56.216Z,98000.13
2023-05-11T03:15:00.876Z,98000.91
2023-05-11T03:20:04.819Z,98002.47
2023-05-11T03:25:08.148Z,97999.38
2023-05-11T03:30:12.194Z,97994.69
2023-05-11T03:35:19.337Z,98004.03
2023-05-11T03:40:24.181Z,98005.19
2023-05-11T03:45:31.813Z,98002.47
2023-05-11T03:50:34.325Z,98001.28
2023-05-11T03:55:36.275Z,98004.75
2023-05-11T04:00:42.733Z,98007.47
2023-05-11T04:05:44.677Z,98001.66
2023-05-11T04:10:47.793Z,98009.53
2023-05-11T04:15:50.034Z,98006.50
2023-05-11T04:20:52.796Z,98008.13
2023-05-11T04:25:55.629Z,98005.03
2023-05-11T04:30:57.990Z,98002.31
2023-05-11T04:36:00.045Z,98008.91
2023-05-11T04:41:06.890Z,98003.47
2023-05-11T04:46:09.733Z,98005.84
2023-05-11T04:51:11.781Z,98006.66
2023-05-11T04:56:18.068Z,98010.59
2023-05-11T05:01:20.084Z,98006.69
2023-05-11T05:06:22.087Z,98009.84
2023-05-11T05:11:24.378Z,98008.34
2023-05-11T05:16:26.465Z,98014.59
2023-05-11T05:21:29.120Z,98015.41
2023-05-11T05:26:31.723Z,98010.00
2023-05-11T05:31:35.088Z,98013.53
2023-05-11T05:36:38.285Z,98024.84
2023-05-11T05:41:42.149Z,98032.66
2023-05-11T05:46:45.078Z,98031.47
2023-05-11T05:51:48.087Z,98030.63
2023-05-11T05:56:50.583Z,98028.66
2023-05-11T06:01:52.566Z,98037.97
2023-05-11T06:06:58.258Z,98041.81
2023-05-11T06:12:00.690Z,98039.44
2023-05-11T06:17:02.677Z,98042.47
2023-05-11T06:22:06.632Z,98046.69
2023-05-11T06:27:10.381Z,98038.38
2023-05-11T06:32:12.291Z,98039.06
2023-05-11T06:37:20.450Z,98036.56
2023-05-11T06:42:24.955Z,98040.34
2023-05-11T06:47:38.912Z,98040.19
2023-05-11T06:52:40.872Z,98041.63
2023-05-11T06:57:42.789Z,98039.06
2023-05-11T07:02:44.741Z,98038.59
2023-05-11T07:07:46.767Z,98038.03
2023-05-11T07:12:49.093Z,98037.03
2023-05-11T07:17:51.144Z,98040.16
2023-05-11T07:22:56.705Z,98042.69
2023-05-11T07:27:58.609Z,98044.31
2023-05-11T07:33:00.564Z,98037.66
2023-05-11T07:38:03.835Z,98037.25
2023-05-11T07:43:05.734Z,98051.94
2023-05-11T07:48:07.921Z,98047.97
2023-05-11T07:53:09.985Z,98048.75
2023-05-11T07:58:11.946Z,98054.53
2023-05-11T08:03:14.709Z,98062.94
2023-05-11T08:08:16.651Z,98060.34
2023-05-11T08:13:18.984Z,98053.22
2023-05-11T08:18:22.473Z,98064.22
2023-05-11T08:23:24.326Z,98058.38
2023-05-11T08:28:26.385Z,98064.19
2023-05-11T08:38:33.578Z,98061.84
2023-05-11T08:43:39.795Z,98058.59
2023-05-11T08:48:42.656Z,98055.56
2023-05-11T08:53:45.061Z,98050.66
2023-05-11T08:58:47.512Z,98057.06
2023-05-11T09:03:50.977Z,98061.09
2023-05-11T09:08:53.690Z,98055.97
2023-05-11T09:13:55.717Z,98065.59
2023-05-11T09:19:04.351Z,98050.38
2023-05-11T09:24:06.655Z,98062.59
2023-05-11T09:29:08.614Z,98055.44
2023-05-11T09:34:14.657Z,98056.47
2023-05-11T09:44:31.835Z,98054.31
2023-05-11T09:49:34.845Z,98057.97
2023-05-11T09:54:44.613Z,98054.13
2023-05-11T09:59:46.478Z,98062.72
2023-05-11T10:04:52.747Z,98060.19
2023-05-11T10:09:56.933Z,98043.91
2023-05-11T10:15:03.908Z,98051.78
2023-05-11T10:20:06.799Z,98046.91
2023-05-11T10:25:10.076Z,98055.63
2023-05-11T10:30:13.299Z,98054.53
2023-05-11T10:35:15.617Z,98050.91
2023-05-11T10:40:18.002Z,98063.63
2023-05-11T10:45:57.577Z,98049.91
2023-05-11T10:51:05.698Z,98046.03
2023-05-11T10:56:43.858Z,98043.59
2023-05-11T11:01:46.700Z,98064.88
2023-05-11T11:07:04.690Z,98053.69
2023-05-11T11:12:10.312Z,98052.78
2023-05-11T11:17:22.432Z,98050.72
2023-05-11T11:22:37.061Z,98061.09
2023-05-11T11:27:42.019Z,98053.00
2023-05-11T11:32:46.130Z,98071.41
2023-05-11T11:38:04.791Z,98050.38
2023-05-11T11:43:17.645Z,98052.59
2023-05-11T11:48:29.561Z,98055.25
2023-05-11T11:53:37.952Z,98061.63
2023-05-11T11:58:46.285Z,98063.09
2023-05-11T12:04:09.610Z,98062.97
2023-05-11T12:09:16.821Z,98071.25
2023-05-11T12:14:20.454Z,98065.06
2023-05-11T12:19:24.750Z,98071.09
2023-05-11T12:24:26.846Z,98081.66
2023-05-11T12:29:28.691Z,98084.09
2023-05-11T12:34:30.536Z,98078.88
2023-05-11T12:39:32.910Z,98084.09
2023-05-11T12:44:35.260Z,98079.38
2023-05-11T12:49:37.360Z,98087.56
2023-05-11T12:54:41.188Z,98074.44
2023-05-11T12:59:43.074Z,98085.16
2023-05-11T13:04:46.615Z,98076.94
2023-05-11T13:09:59.357Z,98068.88
2023-05-11T13:15:07.209Z,98072.41
2023-05-11T13:20:27.289Z,98064.31
2023-05-11T13:25:29.287Z,98065.66
2023-05-11T13:30:33.410Z,98065.66
2023-05-11T13:35:41.408Z,98051.84
2023-05-11T13:40:43.233Z,98059.19
2023-05-11T13:45:45.083Z,98060.91
2023-05-11T13:50:47.274Z,98056.25
2023-05-11T13:55:49.110Z,98045.22
2023-05-11T14:01:06.514Z,98055.19
2023-05-11T14:06:09.509Z,98051.22
2023-05-11T14:11:11.332Z,98047.06
2023-05-11T14:16:13.241Z,98050.16
2023-05-11T14:21:15.098Z,98046.91
2023-05-11T14:26:17.179Z,98044.00
2023-05-11T14:31:19.155Z,98041.56
2023-05-11T14:36:21.489Z,98038.81
2023-05-11T14:41:23.590Z,98038.25
2023-05-11T14:46:26.745Z,98038.13
2023-05-11T14:51:28.876Z,98036.72
2023-05-11T14:56:31.073Z,98050.06
2023-05-11T15:01:33.208Z,98032.31
2023-05-11T15:06:35.075Z,98046.66
2023-05-11T15:11:40.741Z,98045.81
2023-05-11T15:16:42.977Z,98047.69
2023-05-11T15:21:44.952Z,98056.19
2023-05-11T15:26:46.807Z,98063.78
2023-05-11T15:31:48.694Z,98058.59
2023-05-11T15:36:50.699Z,98066.53
2023-05-11T15:41:52.541Z,98058.25
2023-05-11T15:46:54.456Z,98066.53
2023-05-11T15:51:56.322Z,98068.34
2023-05-11T15:56:58.811Z,98064.47
2023-05-11T16:02:00.854Z,98073.09
2023-05-11T16:07:02.766Z,98069.97
2023-05-11T16:12:04.837Z,98078.41
2023-05-11T16:17:07.782Z,98072.66
2023-05-11T16:22:10.213Z,98075.50
2023-05-11T16:27:12.051Z,98079.97
2023-05-11T16:32:14.481Z,98076.88
2023-05-11T16:37:16.368Z,98085.66
2023-05-11T16:42:19.284Z,98072.19
2023-05-11T16:47:22.382Z,98077.03
2023-05-11T16:52:24.785Z,98079.78
2023-05-11T16:57:26.969Z,98086.13
2023-05-11T17:02:29.988Z,98083.88
2023-05-11T17:07:32.147Z,98093.50
2023-05-11T17:12:35.700Z,98092.88
2023-05-11T17:17:38.294Z,98091.41
2023-05-11T17:22:40.283Z,98101.81
2023-05-11T17:27:42.110Z,98104.97
2023-05-11T17:32:44.369Z,98105.81
2023-05-11T17:37:46.374Z,98112.19
2023-05-11T17:42:48.214Z,98108.44
2023-05-11T17:47:50.737Z,98120.38
2023-05-11T17:52:52.632Z,98132.38
2023-05-11T17:57:54.514Z,98130.59
2023-05-11T18:02:56.681Z,98140.53
2023-05-11T18:07:59.012Z,98131.97
2023-05-11T18:13:01.025Z,98145.38
2023-05-11T18:18:03.509Z,98154.13
2023-05-11T18:23:05.869Z,98153.84
2023-05-11T18:28:07.863Z,98159.81
2023-05-11T18:33:09.770Z,98156.00
2023-05-11T18:38:11.941Z,98168.63
2023-05-11T18:43:14.155Z,98171.41
2023-05-11T18:48:16.253Z,98174.16
2023-05-11T18:53:18.178Z,98179.69
2023-05-11T18:58:20.774Z,98186.00
2023-05-11T19:03:23.175Z,98193.13
2023-05-11T19:08:25.504Z,98197.81
2023-05-11T19:13:28.591Z,98210.50
2023-05-11T19:18:32.818Z,98212.16
2023-05-11T19:23:35.396Z,98211.44
2023-05-11T19:28:37.391Z,98220.91
2023-05-11T19:33:39.273Z,98217.88
2023-05-11T19:38:41.119Z,98231.31
2023-05-11T19:43:43.385Z,98223.09
2023-05-11T19:48:45.258Z,98218.78
2023-05-11T19:53:47.537Z,98223.56
2023-05-11T19:58:49.430Z,98219.34
2023-05-11T20:03:52.001Z,98234.28
2023-05-11T20:08:54.360Z,98236.31
2023-05-11T20:13:56.460Z,98232.44
2023-05-11T20:18:59.611Z,98230.16
2023-05-11T20:24:01.709Z,98223.91
2023-05-11T20:29:04.017Z,98225.56
2023-05-11T20:34:07.319Z,98230.69
2023-05-11T20:39:09.776Z,98230.38
2023-05-11T20:44:13.895Z,98232.41
2023-05-11T20:49:24.744Z,98228.44
2023-05-11T20:54:34.964Z,98233.19
2023-05-11T21:04:41.759Z,98236.19
2023-05-11T21:09:44.946Z,98236.91
2023-05-11T21:14:46.797Z,98229.94
2023-05-11T21:19:48.605Z,98227.63
2023-05-11T21:24:50.441Z,98229.56
2023-05-11T21:29:52.585Z,98226.03
2023-05-11T21:34:54.410Z,98224.91
2023-05-11T21:39:56.251Z,98225.25
2023-05-11T21:44:58.079Z,98227.63
2023-05-11T21:50:00.099Z,98225.34
2023-05-11T21:55:02.022Z,98224.59
2023-05-11T22:00:04.530Z,98235.63
2023-05-11T22:05:06.730Z,98236.59
2023-05-11T22:10:09.375Z,98232.72
2023-05-11T22:15:12.218Z,98224.56
2023-05-11T22:20:14.683Z,98230.84
2023-05-11T22:25:16.685Z,98223.03
2023-05-11T22:30:18.901Z,98224.25
2023-05-11T22:35:21.499Z,98242.75
2023-05-11T22:40:23.477Z,98236.16
2023-05-11T22:45:25.319Z,98236.91
2023-05-11T22:50:27.161Z,98238.47
2023-05-11T22:55:29.401Z,98231.44
2023-05-11T23:00:31.431Z,98232.72
2023-05-11T23:05:33.756Z,98232.38
2023-05-11T23:10:35.652Z,98236.25
2023-05-11T23:15:37.547Z,98230.75
2023-05-11T23:20:39.428Z,98226.88
2023-05-11T23:25:41.317Z,98226.16
2023-05-11T23:30:45.954Z,98232.44
2023-05-11T23:35:48.591Z,98220.69
2023-05-11T23:40:50.568Z,98224.16
2023-05-11T23:45:52.668Z,98213.22
2023-05-11T23:50:54.571Z,98212.50
2023-05-11T23:55:56.496Z,98217.59
